College Station, TX (77841)

4:21 PM CDT on August 30, 2016 (GMT -0500)
Observatory | | Change Station

Elev 283 ft 30.57 °N, 96.37 °W | Updated 18 seconds ago

Scattered Clouds
Scattered Clouds
92.8 °F
Feels Like 103 °F
N
6.0
Wind Variable Wind from NNE
Gusts 7.0 mph

Today
High -- | Low -- °F
--% Chance of Precip.
Yesterday
High -- | Low -- °F
Precip. -- in
Pressure 29.91 in
Visibility 10.0 miles
Clouds Few 4700 ft
Scattered Clouds 6000 ft
Heat Index 103 °F
Dew Point 74 °F
Humidity 54%
Rainfall 0.00 in
Snow Depth Not available.
7:01 AM 7:49 PM
Waning Crescent, 2% visible
METAR KCLL 302053Z 08007KT 10SM FEW047 SCT060 33/22 A2992 RMK AO2 SLP127 T03330222 58026
Pressure 29.91 in
Visibility 10.0 miles
Clouds Few 4700 ft
Scattered Clouds 6000 ft
Heat Index 103 °F
Dew Point 74 °F
Humidity 54%
Rainfall 0.00 in
Snow Depth Not available.
7:01 AM 7:49 PM
Waning Crescent, 2% visible
METAR KCLL 302053Z 08007KT 10SM FEW047 SCT060 33/22 A2992 RMK AO2 SLP127 T03330222 58026

10-Day Weather Forecast

Almanac

Astronomy

Aug. 30, 2016 Rise Set
Actual Time
Civil Twilight
Nautical Twilight
Astronomical Twilight
Moon
Length of Visible Light
Length of Day
Tomorrow will be .
, % of the Moon is Illuminated

Today's Extremes

State Highs State Lows

Community

WunderPhotos

Upload Photos

1,935,899 photos uploaded!

WunderBlog® & News

Nearby

Air Quality

  Air Quality AQ Index Pollutant
Not available.

Snow Depth

Station Depth Elevation

Earthquake Activity

City Distance Mag. Time & Date
Minimum magnitude displayed is 2.5.

Coastal Water Temperatures

Place Temperature

Stations

Nearby Weather Stations

Station Location Temp. Windchill Dew Point Humidity Wind Precip. Elev Updated Type
                   

Watches & Warnings

There are currently no watches in effect.